Terminal Aerodrome Forecast
Issued by NWS St Louis, MO

Home | Current Version | Previous Version | Graphics & Text | Print | Product List | Glossary On
Versions: 1 2 3 4 5 6 7 8 9 10 11 12 13 14 15 16 17 18 19 20 21 22 23 24 25
843
FTUS43 KLSX 112322
TAFSTL
TAF
KSTL 112322Z 1200/1306 30017G27KT P6SM OVC060
     FM120400 32017G29KT P6SM OVC025
     FM121200 32015G24KT P6SM SCT040
     FM122300 30009KT P6SM FEW200
     FM130100 29005KT P6SM FEW200=

USA.gov is the U.S. government's official web portal to all federal, state and local government web resources and services.